Time,TemperatureF,DewpointF,PressureIn,WindDirection,WindDirectionDegrees,WindSpeedMPH,WindSpeedGustMPH,Humidity,HourlyPrecipIn,Conditions,Clouds,dailyrainin,SoftwareType,DateUTC
2013-12-06 00:01:00,-3.6,-12.5,21.18,West,270,0.0,0.0,65,0.00,,,0.00,WUHU216HW,2013-12-06 07:01:00,
2013-12-06 00:06:00,-3.6,-12.5,21.18,West,270,0.0,0.0,65,0.00,,,0.00,WUHU216HW,2013-12-06 07:06:00,
2013-12-06 00:11:00,-3.8,-12.4,21.18,WNW,293,0.0,0.2,66,0.00,,,0.00,WUHU216HW,2013-12-06 07:11:00,
2013-12-06 00:16:00,-4.0,-12.9,21.18,WNW,293,0.0,0.2,65,0.00,,,0.00,WUHU216HW,2013-12-06 07:16:00,
2013-12-06 00:21:00,-4.0,-12.9,21.18,NE,45,0.2,0.2,65,0.00,,,0.00,WUHU216HW,2013-12-06 07:21:00,
2013-12-06 00:26:00,-4.0,-12.6,21.18,NE,45,0.0,0.2,66,0.00,,,0.00,WUHU216HW,2013-12-06 07:26:00,
2013-12-06 00:31:00,-4.0,-12.6,21.18,NE,45,0.0,0.0,66,0.00,,,0.00,WUHU216HW,2013-12-06 07:31:00,
2013-12-06 00:36:00,-4.0,-12.6,21.18,ENE,68,0.0,0.0,66,0.00,,,0.00,WUHU216HW,2013-12-06 07:36:00,
2013-12-06 00:41:00,-4.1,-12.8,21.17,ENE,68,0.0,0.0,66,0.00,,,0.00,WUHU216HW,2013-12-06 07:41:00,
2013-12-06 00:46:00,-4.1,-12.8,21.17,ENE,68,0.0,0.0,66,0.00,,,0.00,WUHU216HW,2013-12-06 07:46:00,
2013-12-06 00:51:00,-4.1,-12.8,21.17,ENE,68,0.0,0.0,66,0.00,,,0.00,WUHU216HW,2013-12-06 07:51:00,
2013-12-06 00:56:00,-4.1,-12.8,21.17,ENE,68,0.0,0.0,66,0.00,,,0.00,WUHU216HW,2013-12-06 07:56:00,
2013-12-06 01:01:00,-4.0,-12.2,21.17,ENE,68,0.0,0.0,67,0.00,,,0.00,WUHU216HW,2013-12-06 08:01:00,
2013-12-06 01:06:00,-4.0,-12.2,21.17,ENE,68,0.0,0.0,67,0.00,,,0.00,WUHU216HW,2013-12-06 08:06:00,
2013-12-06 01:12:00,-4.0,-12.6,21.18,NE,45,0.0,0.0,66,0.00,,,0.00,WUHU216HW,2013-12-06 08:12:00,
2013-12-06 01:17:00,-4.1,-12.8,21.18,NE,45,0.0,0.0,66,0.00,,,0.00,WUHU216HW,2013-12-06 08:17:00,
2013-12-06 01:22:00,-4.3,-13.0,21.18,WNW,293,0.0,0.0,66,0.00,,,0.00,WUHU216HW,2013-12-06 08:22:00,
2013-12-06 01:27:00,-4.5,-13.1,21.18,WNW,293,0.0,0.0,66,0.00,,,0.00,WUHU216HW,2013-12-06 08:27:00,
2013-12-06 01:32:00,-4.5,-13.1,21.18,WNW,293,0.0,0.0,66,0.00,,,0.00,WUHU216HW,2013-12-06 08:32:00,
2013-12-06 01:37:00,-4.5,-13.1,21.18,WNW,293,0.0,0.0,66,0.00,,,0.00,WUHU216HW,2013-12-06 08:37:00,
2013-12-06 01:42:00,-4.5,-13.1,21.18,WNW,293,0.0,0.0,66,0.00,,,0.00,WUHU216HW,2013-12-06 08:42:00,
2013-12-06 01:47:00,-4.5,-12.8,21.18,WNW,293,0.0,0.0,67,0.00,,,0.00,WUHU216HW,2013-12-06 08:47:00,
2013-12-06 01:52:00,-4.7,-13.3,21.18,WNW,293,0.0,0.4,66,0.00,,,0.00,WUHU216HW,2013-12-06 08:52:00,
2013-12-06 01:57:00,-4.7,-13.3,21.18,WNW,293,0.0,0.4,66,0.00,,,0.00,WUHU216HW,2013-12-06 08:57:00,
2013-12-06 02:02:00,-4.7,-13.3,21.18,WNW,293,0.0,0.0,66,0.00,,,0.00,WUHU216HW,2013-12-06 09:02:00,
2013-12-06 02:07:00,-5.0,-13.7,21.18,WNW,293,0.0,0.0,66,0.00,,,0.00,WUHU216HW,2013-12-06 09:07:00,
2013-12-06 02:12:00,-5.0,-13.7,21.18,WNW,293,0.0,0.0,66,0.00,,,0.00,WUHU216HW,2013-12-06 09:12:00,
2013-12-06 02:17:00,-5.0,-13.3,21.18,WNW,293,0.0,0.0,67,0.00,,,0.00,WUHU216HW,2013-12-06 09:17:00,
2013-12-06 02:22:00,-5.0,-13.3,21.18,ENE,68,0.0,0.2,67,0.00,,,0.00,WUHU216HW,2013-12-06 09:22:00,
2013-12-06 02:27:00,-5.0,-13.3,21.18,NW,315,0.0,0.2,67,0.00,,,0.00,WUHU216HW,2013-12-06 09:27:00,
2013-12-06 02:32:00,-5.0,-13.3,21.19,NW,315,0.0,0.0,67,0.00,,,0.00,WUHU216HW,2013-12-06 09:32:00,
2013-12-06 02:37:00,-5.0,-13.3,21.18,NNW,338,0.0,0.0,67,0.00,,,0.00,WUHU216HW,2013-12-06 09:37:00,
2013-12-06 02:42:00,-4.9,-13.1,21.19,NNW,338,0.0,0.0,67,0.00,,,0.00,WUHU216HW,2013-12-06 09:42:00,
2013-12-06 02:47:00,-4.7,-12.9,21.18,NNW,338,0.0,0.0,67,0.00,,,0.00,WUHU216HW,2013-12-06 09:47:00,
2013-12-06 02:52:00,-4.9,-13.1,21.19,NNW,338,0.0,0.0,67,0.00,,,0.00,WUHU216HW,2013-12-06 09:52:00,
2013-12-06 02:57:00,-4.9,-13.1,21.19,NNW,338,0.0,0.0,67,0.00,,,0.00,WUHU216HW,2013-12-06 09:57:00,
2013-12-06 03:02:00,-5.0,-13.3,21.18,NNW,338,0.0,0.0,67,0.00,,,0.00,WUHU216HW,2013-12-06 10:02:00,
2013-12-06 03:07:00,-5.0,-13.3,21.18,NW,315,0.0,0.0,67,0.00,,,0.00,WUHU216HW,2013-12-06 10:07:00,
2013-12-06 03:12:00,-5.4,-13.7,21.19,NW,315,0.0,0.0,67,0.00,,,0.00,WUHU216HW,2013-12-06 10:12:00,
2013-12-06 03:17:00,-5.4,-14.0,21.19,NW,315,0.0,0.0,66,0.00,,,0.00,WUHU216HW,2013-12-06 10:17:00,
2013-12-06 03:22:00,-5.4,-13.7,21.19,NW,315,0.0,0.0,67,0.00,,,0.00,WUHU216HW,2013-12-06 10:22:00,
2013-12-06 03:27:00,-5.4,-13.7,21.19,WNW,293,0.0,0.0,67,0.00,,,0.00,WUHU216HW,2013-12-06 10:27:00,
2013-12-06 03:32:00,-5.4,-13.7,21.18,NW,315,0.0,0.0,67,0.00,,,0.00,WUHU216HW,2013-12-06 10:32:00,
2013-12-06 03:37:00,-5.4,-13.7,21.18,NW,315,0.0,0.0,67,0.00,,,0.00,WUHU216HW,2013-12-06 10:37:00,
2013-12-06 03:42:00,-5.4,-13.7,21.18,NW,315,0.0,0.0,67,0.00,,,0.00,WUHU216HW,2013-12-06 10:42:00,
2013-12-06 03:47:00,-5.2,-13.5,21.19,NW,315,0.0,0.0,67,0.00,,,0.00,WUHU216HW,2013-12-06 10:47:00,
2013-12-06 03:52:00,-5.0,-13.0,21.18,NW,315,0.0,0.0,68,0.00,,,0.00,WUHU216HW,2013-12-06 10:52:00,
2013-12-06 03:57:00,-5.0,-13.3,21.19,WNW,293,0.0,0.0,67,0.00,,,0.00,WUHU216HW,2013-12-06 10:57:00,
2013-12-06 04:02:00,-5.0,-13.3,21.18,WNW,293,0.0,0.0,67,0.00,,,0.00,WUHU216HW,2013-12-06 11:02:00,
2013-12-06 04:07:00,-4.9,-12.9,21.19,WNW,293,0.0,0.0,68,0.00,,,0.00,WUHU216HW,2013-12-06 11:07:00,
2013-12-06 04:12:00,-4.9,-12.9,21.18,WNW,293,0.0,0.0,68,0.00,,,0.00,WUHU216HW,2013-12-06 11:12:00,
2013-12-06 04:17:00,-4.9,-12.9,21.18,WNW,293,0.0,0.0,68,0.00,,,0.00,WUHU216HW,2013-12-06 11:17:00,
2013-12-06 04:22:00,-4.7,-12.7,21.19,NNW,338,0.0,0.0,68,0.00,,,0.00,WUHU216HW,2013-12-06 11:22:00,
2013-12-06 04:27:00,-4.7,-12.9,21.19,NNW,338,0.0,0.0,67,0.00,,,0.00,WUHU216HW,2013-12-06 11:27:00,
2013-12-06 04:32:00,-4.7,-12.7,21.19,NNW,338,0.0,0.0,68,0.00,,,0.00,WUHU216HW,2013-12-06 11:32:00,
2013-12-06 04:37:00,-4.7,-12.7,21.19,NNW,338,0.0,0.0,68,0.00,,,0.00,WUHU216HW,2013-12-06 11:37:00,
2013-12-06 04:42:00,-4.7,-12.9,21.19,NNW,338,0.0,0.2,67,0.00,,,0.00,WUHU216HW,2013-12-06 11:42:00,
2013-12-06 04:47:00,-4.7,-12.9,21.19,NNW,338,0.0,0.2,67,0.00,,,0.00,WUHU216HW,2013-12-06 11:47:00,
2013-12-06 04:52:00,-4.7,-12.9,21.19,NNW,338,0.0,0.0,67,0.00,,,0.00,WUHU216HW,2013-12-06 11:52:00,
2013-12-06 04:57:00,-4.5,-12.8,21.19,NNW,338,0.0,0.0,67,0.00,,,0.00,WUHU216HW,2013-12-06 11:57:00,
2013-12-06 05:02:00,-4.5,-12.5,21.19,NNW,338,0.0,0.0,68,0.00,,,0.00,WUHU216HW,2013-12-06 12:02:00,
2013-12-06 05:07:00,-4.1,-12.1,21.19,NNW,338,0.0,0.0,68,0.00,,,0.00,WUHU216HW,2013-12-06 12:07:00,
2013-12-06 05:12:00,-4.0,-12.0,21.19,NNW,338,0.0,0.0,68,0.00,,,0.00,WUHU216HW,2013-12-06 12:12:00,
2013-12-06 05:17:00,-4.1,-12.1,21.19,NNW,338,0.0,0.0,68,0.00,,,0.00,WUHU216HW,2013-12-06 12:17:00,
2013-12-06 05:22:00,-4.5,-12.8,21.20,NNW,338,0.0,0.0,67,0.00,,,0.00,WUHU216HW,2013-12-06 12:22:00,
2013-12-06 05:27:00,-4.5,-12.8,21.19,NNW,338,0.0,0.0,67,0.00,,,0.00,WUHU216HW,2013-12-06 12:27:00,
2013-12-06 05:32:00,-4.5,-12.8,21.19,NNW,338,0.0,0.0,67,0.00,,,0.00,WUHU216HW,2013-12-06 12:32:00,
2013-12-06 05:37:00,-4.5,-12.8,21.19,WNW,293,0.0,0.2,67,0.00,,,0.00,WUHU216HW,2013-12-06 12:37:00,
2013-12-06 05:42:00,-4.7,-12.9,21.19,WNW,293,0.0,0.2,67,0.00,,,0.00,WUHU216HW,2013-12-06 12:42:00,
2013-12-06 05:47:00,-4.3,-12.6,21.19,WNW,293,0.0,0.0,67,0.00,,,0.00,WUHU216HW,2013-12-06 12:47:00,
2013-12-06 05:52:00,-4.3,-12.6,21.20,WNW,293,0.0,0.0,67,0.00,,,0.00,WUHU216HW,2013-12-06 12:52:00,
2013-12-06 05:57:00,-4.3,-12.3,21.20,WNW,293,0.0,0.0,68,0.00,,,0.00,WUHU216HW,2013-12-06 12:57:00,
2013-12-06 06:02:00,-4.3,-12.6,21.20,WNW,293,0.0,0.0,67,0.00,,,0.00,WUHU216HW,2013-12-06 13:02:00,
2013-12-06 06:07:00,-4.3,-12.6,21.20,WNW,293,0.0,0.0,67,0.00,,,0.00,WUHU216HW,2013-12-06 13:07:00,
2013-12-06 06:12:00,-4.3,-12.3,21.20,NW,315,0.0,0.0,68,0.00,,,0.00,WUHU216HW,2013-12-06 13:12:00,
2013-12-06 06:17:00,-4.3,-12.3,21.20,NW,315,0.0,0.0,68,0.00,,,0.00,WUHU216HW,2013-12-06 13:17:00,
2013-12-06 06:22:00,-4.1,-12.1,21.20,NW,315,0.0,0.0,68,0.00,,,0.00,WUHU216HW,2013-12-06 13:22:00,
2013-12-06 06:27:00,-4.1,-12.1,21.20,NW,315,0.0,0.0,68,0.00,,,0.00,WUHU216HW,2013-12-06 13:27:00,
2013-12-06 06:32:00,-4.0,-12.0,21.20,NW,315,0.0,0.0,68,0.00,,,0.00,WUHU216HW,2013-12-06 13:32:00,
2013-12-06 06:37:00,-4.0,-12.0,21.20,NW,315,0.0,0.0,68,0.00,,,0.00,WUHU216HW,2013-12-06 13:37:00,
2013-12-06 06:42:00,-4.0,-12.0,21.20,NW,315,0.0,0.0,68,0.00,,,0.00,WUHU216HW,2013-12-06 13:42:00,
2013-12-06 06:47:00,-3.8,-11.4,21.20,NW,315,0.0,0.0,69,0.00,,,0.00,WUHU216HW,2013-12-06 13:47:00,
2013-12-06 06:52:00,-3.2,-10.9,21.21,NW,315,0.0,0.0,69,0.00,,,0.00,WUHU216HW,2013-12-06 13:52:00,
2013-12-06 06:57:00,-3.2,-10.9,21.21,NNE,23,0.0,0.0,69,0.00,,,0.00,WUHU216HW,2013-12-06 13:57:00,
2013-12-06 07:02:00,-3.2,-10.9,21.21,NNE,23,0.0,0.0,69,0.00,,,0.00,WUHU216HW,2013-12-06 14:02:00,
2013-12-06 07:07:00,-3.2,-10.9,21.21,NNE,23,0.0,0.0,69,0.00,,,0.00,WUHU216HW,2013-12-06 14:07:00,
2013-12-06 07:11:00,-3.1,-10.8,21.21,East,90,0.0,0.0,69,0.00,,,0.00,WUHU216HW,2013-12-06 14:11:00,
2013-12-06 07:16:00,-3.1,-10.8,21.21,East,90,0.0,0.0,69,0.00,,,0.00,WUHU216HW,2013-12-06 14:16:00,
2013-12-06 07:21:00,-3.1,-10.8,21.21,East,90,0.0,0.0,69,0.00,,,0.00,WUHU216HW,2013-12-06 14:21:00,
2013-12-06 07:26:00,-2.7,-10.4,21.21,East,90,0.0,0.0,69,0.00,,,0.00,WUHU216HW,2013-12-06 14:26:00,
2013-12-06 07:31:00,-2.5,-10.3,21.21,East,90,0.0,0.0,69,0.00,,,0.00,WUHU216HW,2013-12-06 14:31:00,
2013-12-06 07:36:00,-2.2,-9.9,21.22,East,90,0.0,0.0,69,0.00,,,0.00,WUHU216HW,2013-12-06 14:36:00,
2013-12-06 07:41:00,-2.0,-9.7,21.22,East,90,0.0,0.0,69,0.00,,,0.00,WUHU216HW,2013-12-06 14:41:00,
2013-12-06 07:46:00,-1.8,-9.5,21.22,East,90,0.0,0.0,69,0.00,,,0.00,WUHU216HW,2013-12-06 14:46:00,
2013-12-06 07:51:00,-1.4,-9.2,21.22,East,90,0.0,0.0,69,0.00,,,0.00,WUHU216HW,2013-12-06 14:51:00,
2013-12-06 07:56:00,-1.1,-8.9,21.22,East,90,0.0,0.0,69,0.00,,,0.00,WUHU216HW,2013-12-06 14:56:00,
2013-12-06 08:01:00,-1.1,-8.9,21.22,East,90,0.0,0.0,69,0.00,,,0.00,WUHU216HW,2013-12-06 15:01:00,
2013-12-06 08:06:00,-0.7,-8.5,21.22,East,90,0.0,0.0,69,0.00,,,0.00,WUHU216HW,2013-12-06 15:06:00,
2013-12-06 08:11:00,-0.5,-8.4,21.22,East,90,0.0,0.0,69,0.00,,,0.00,WUHU216HW,2013-12-06 15:11:00,
2013-12-06 08:16:00,-0.2,-8.0,21.22,East,90,0.0,0.0,69,0.00,,,0.00,WUHU216HW,2013-12-06 15:16:00,
2013-12-06 08:21:00,0.4,-7.5,21.23,East,90,0.0,0.0,69,0.00,,,0.00,WUHU216HW,2013-12-06 15:21:00,
2013-12-06 08:26:00,0.5,-7.0,21.23,ESE,113,0.0,0.2,70,0.00,,,0.00,WUHU216HW,2013-12-06 15:26:00,
2013-12-06 08:31:00,0.7,-7.2,21.23,ESE,113,0.0,0.2,69,0.00,,,0.00,WUHU216HW,2013-12-06 15:31:00,
2013-12-06 08:36:00,1.1,-6.5,21.23,ESE,113,0.0,0.2,70,0.00,,,0.00,WUHU216HW,2013-12-06 15:36:00,
2013-12-06 08:41:00,1.4,-6.1,21.23,East,90,0.0,0.2,70,0.00,,,0.00,WUHU216HW,2013-12-06 15:41:00,
2013-12-06 08:46:00,1.8,-6.1,21.23,North,0,0.0,0.0,69,0.00,,,0.00,WUHU216HW,2013-12-06 15:46:00,
2013-12-06 08:51:00,2.2,-5.8,21.23,North,0,0.0,0.0,69,0.00,,,0.00,WUHU216HW,2013-12-06 15:51:00,
2013-12-06 08:56:00,2.5,-5.4,21.24,East,90,0.0,0.2,69,0.00,,,0.00,WUHU216HW,2013-12-06 15:56:00,
2013-12-06 09:01:00,3.1,-4.9,21.24,ESE,113,0.0,0.4,69,0.00,,,0.00,WUHU216HW,2013-12-06 16:01:00,
2013-12-06 09:06:00,3.6,-4.3,21.24,WSW,248,0.0,0.4,69,0.00,,,0.00,WUHU216HW,2013-12-06 16:06:00,
2013-12-06 09:11:00,4.1,-4.1,21.24,WSW,248,0.0,0.2,68,0.00,,,0.00,WUHU216HW,2013-12-06 16:11:00,
2013-12-06 09:16:00,4.3,-4.3,21.24,West,270,0.0,0.4,67,0.00,,,0.00,WUHU216HW,2013-12-06 16:16:00,
2013-12-06 09:21:00,4.9,-3.9,21.24,WNW,293,0.0,0.4,67,0.00,,,0.00,WUHU216HW,2013-12-06 16:21:00,
2013-12-06 09:26:00,5.4,-3.3,21.24,ESE,113,0.4,0.4,67,0.00,,,0.00,WUHU216HW,2013-12-06 16:26:00,
2013-12-06 09:31:00,5.8,-3.2,21.24,West,270,0.4,1.6,66,0.00,,,0.00,WUHU216HW,2013-12-06 16:31:00,
2013-12-06 09:36:00,5.6,-4.4,21.24,West,270,4.3,4.3,63,0.00,,,0.00,WUHU216HW,2013-12-06 16:36:00,
2013-12-06 09:41:00,5.2,-5.8,21.24,WNW,293,2.7,4.3,60,0.00,,,0.00,WUHU216HW,2013-12-06 16:41:00,
2013-12-06 09:46:00,5.4,-4.9,21.24,West,270,0.0,3.6,62,0.00,,,0.00,WUHU216HW,2013-12-06 16:46:00,
2013-12-06 09:51:00,6.1,-3.9,21.24,West,270,0.2,0.7,63,0.00,,,0.00,WUHU216HW,2013-12-06 16:51:00,
2013-12-06 09:56:00,6.8,-3.1,21.25,West,270,0.0,0.2,63,0.00,,,0.00,WUHU216HW,2013-12-06 16:56:00,
2013-12-06 10:01:00,7.7,-2.0,21.25,West,270,0.0,0.2,64,0.00,,,0.00,WUHU216HW,2013-12-06 17:01:00,
2013-12-06 10:06:00,8.8,-1.0,21.25,West,270,0.7,0.7,64,0.00,,,0.00,WUHU216HW,2013-12-06 17:06:00,
2013-12-06 10:11:00,9.5,-0.3,21.25,East,90,0.0,0.7,64,0.00,,,0.00,WUHU216HW,2013-12-06 17:11:00,
2013-12-06 10:16:00,10.8,0.9,21.25,East,90,0.4,0.4,64,0.00,,,0.00,WUHU216HW,2013-12-06 17:16:00,
2013-12-06 10:21:00,11.5,0.9,21.25,East,90,0.0,0.4,62,0.00,,,0.00,WUHU216HW,2013-12-06 17:21:00,
2013-12-06 10:26:00,11.9,0.9,21.25,East,90,0.0,0.4,61,0.00,,,0.00,WUHU216HW,2013-12-06 17:26:00,
2013-12-06 10:32:00,12.4,1.5,21.25,East,90,0.0,0.4,61,0.00,,,0.00,WUHU216HW,2013-12-06 17:32:00,
2013-12-06 10:36:00,13.0,1.6,21.25,West,270,0.0,0.4,60,0.00,,,0.00,WUHU216HW,2013-12-06 17:36:00,
2013-12-06 10:42:00,13.3,1.6,21.25,West,270,0.2,0.2,59,0.00,,,0.00,WUHU216HW,2013-12-06 17:42:00,
2013-12-06 10:47:00,13.7,1.5,21.25,East,90,0.7,1.6,58,0.00,,,0.00,WUHU216HW,2013-12-06 17:47:00,
2013-12-06 10:52:00,14.0,1.5,21.25,South,180,0.4,1.6,57,0.00,,,0.00,WUHU216HW,2013-12-06 17:52:00,
2013-12-06 10:57:00,13.1,-0.5,21.25,WNW,293,0.0,3.8,54,0.00,,,0.00,WUHU216HW,2013-12-06 17:57:00,
2013-12-06 11:02:00,13.3,0.0,21.24,West,270,0.9,3.8,55,0.00,,,0.00,WUHU216HW,2013-12-06 18:02:00,
2013-12-06 11:07:00,13.7,0.8,21.25,WSW,248,0.0,0.9,56,0.00,,,0.00,WUHU216HW,2013-12-06 18:07:00,
2013-12-06 11:12:00,13.5,-1.0,21.24,NNW,338,2.2,3.4,52,0.00,,,0.00,WUHU216HW,2013-12-06 18:12:00,
2013-12-06 11:16:00,13.1,-0.9,21.24,WNW,293,1.6,3.4,53,0.00,,,0.00,WUHU216HW,2013-12-06 18:16:00,
2013-12-06 11:21:00,12.6,-1.8,21.24,WNW,293,4.7,4.7,52,0.00,,,0.00,WUHU216HW,2013-12-06 18:21:00,
2013-12-06 11:26:00,11.7,-2.2,21.24,WNW,293,3.4,4.7,53,0.00,,,0.00,WUHU216HW,2013-12-06 18:26:00,
2013-12-06 11:32:00,10.4,-3.0,21.24,West,270,0.0,6.5,54,0.00,,,0.00,WUHU216HW,2013-12-06 18:32:00,
2013-12-06 11:37:00,10.4,-2.6,21.24,West,270,1.3,6.5,55,0.00,,,0.00,WUHU216HW,2013-12-06 18:37:00,
2013-12-06 11:42:00,10.4,-2.2,21.24,East,90,3.8,4.0,56,0.00,,,0.00,WUHU216HW,2013-12-06 18:42:00,
2013-12-06 11:47:00,10.1,-2.2,21.24,West,270,2.5,4.7,57,0.00,,,0.00,WUHU216HW,2013-12-06 18:47:00,
2013-12-06 11:52:00,9.7,-3.0,21.24,North,0,1.3,6.5,56,0.00,,,0.00,WUHU216HW,2013-12-06 18:52:00,
2013-12-06 11:57:00,9.7,-2.6,21.23,West,270,6.3,6.5,57,0.00,,,0.00,WUHU216HW,2013-12-06 18:57:00,
2013-12-06 12:02:00,9.5,-2.0,21.24,WNW,293,0.9,6.5,59,0.00,,,0.00,WUHU216HW,2013-12-06 19:02:00,
2013-12-06 12:07:00,9.5,-2.0,21.24,West,270,2.9,4.3,59,0.00,,,0.00,WUHU216HW,2013-12-06 19:07:00,
2013-12-06 12:12:00,9.4,-1.8,21.23,NNW,338,3.8,6.3,60,0.00,,,0.00,WUHU216HW,2013-12-06 19:12:00,
2013-12-06 12:17:00,9.7,-1.4,21.23,West,270,2.0,6.3,60,0.00,,,0.00,WUHU216HW,2013-12-06 19:17:00,
2013-12-06 12:21:00,10.1,-1.1,21.23,WNW,293,0.4,3.1,60,0.00,,,0.00,WUHU216HW,2013-12-06 19:21:00,
2013-12-06 12:26:00,10.6,-0.5,21.23,NW,315,0.4,2.7,60,0.00,,,0.00,WUHU216HW,2013-12-06 19:26:00,
2013-12-06 12:32:00,10.8,-0.8,21.23,ENE,68,0.9,1.8,59,0.00,,,0.00,WUHU216HW,2013-12-06 19:32:00,
2013-12-06 12:37:00,10.4,-1.4,21.23,WSW,248,0.9,6.3,58,0.00,,,0.00,WUHU216HW,2013-12-06 19:37:00,
2013-12-06 12:42:00,10.4,-1.9,21.23,NE,45,2.7,6.3,57,0.00,,,0.00,WUHU216HW,2013-12-06 19:42:00,
2013-12-06 12:47:00,10.4,-1.4,21.23,West,270,2.0,3.4,58,0.00,,,0.00,WUHU216HW,2013-12-06 19:47:00,
2013-12-06 12:52:00,10.4,-1.9,21.23,WNW,293,3.1,5.6,57,0.00,,,0.00,WUHU216HW,2013-12-06 19:52:00,
2013-12-06 12:57:00,10.3,-1.6,21.23,East,90,1.8,5.6,58,0.00,,,0.00,WUHU216HW,2013-12-06 19:57:00,
2013-12-06 13:02:00,10.4,-1.1,21.23,ENE,68,2.2,3.6,59,0.00,,,0.00,WUHU216HW,2013-12-06 20:02:00,
2013-12-06 13:07:00,10.6,-1.3,21.23,NW,315,2.2,2.7,58,0.00,,,0.00,WUHU216HW,2013-12-06 20:07:00,
2013-12-06 13:12:00,10.6,-0.9,21.23,WNW,293,0.7,2.7,59,0.00,,,0.00,WUHU216HW,2013-12-06 20:12:00,
2013-12-06 13:17:00,10.6,-0.9,21.23,West,270,0.9,4.5,59,0.00,,,0.00,WUHU216HW,2013-12-06 20:17:00,
2013-12-06 13:22:00,10.4,-1.4,21.23,WNW,293,2.9,4.5,58,0.00,,,0.00,WUHU216HW,2013-12-06 20:22:00,
2013-12-06 13:27:00,10.4,-1.1,21.23,ENE,68,1.1,3.6,59,0.00,,,0.00,WUHU216HW,2013-12-06 20:27:00,
2013-12-06 13:32:00,10.4,-1.1,21.23,NW,315,0.2,3.1,59,0.00,,,0.00,WUHU216HW,2013-12-06 20:32:00,
2013-12-06 13:37:00,10.6,-0.9,21.23,WNW,293,4.5,4.5,59,0.00,,,0.00,WUHU216HW,2013-12-06 20:37:00,
2013-12-06 13:42:00,10.4,-1.1,21.23,WNW,293,1.1,4.5,59,0.00,,,0.00,WUHU216HW,2013-12-06 20:42:00,
2013-12-06 13:47:00,10.3,-1.2,21.23,WNW,293,4.7,5.1,59,0.00,,,0.00,WUHU216HW,2013-12-06 20:47:00,
2013-12-06 13:52:00,9.9,-1.3,21.23,WSW,248,1.6,6.7,60,0.00,,,0.00,WUHU216HW,2013-12-06 20:52:00,
2013-12-06 13:57:00,10.1,-1.1,21.23,West,270,2.7,6.7,60,0.00,,,0.00,WUHU216HW,2013-12-06 20:57:00,
2013-12-06 14:02:00,10.1,-0.7,21.23,WNW,293,6.7,6.7,61,0.00,,,0.00,WUHU216HW,2013-12-06 21:02:00,
2013-12-06 14:07:00,10.3,-0.5,21.23,WNW,293,2.9,6.7,61,0.00,,,0.00,WUHU216HW,2013-12-06 21:07:00,
2013-12-06 14:12:00,10.1,-0.4,21.23,NW,315,1.8,4.5,62,0.00,,,0.00,WUHU216HW,2013-12-06 21:12:00,
2013-12-06 14:17:00,9.9,-0.6,21.23,WNW,293,0.7,4.0,62,0.00,,,0.00,WUHU216HW,2013-12-06 21:17:00,
2013-12-06 14:22:00,9.9,-0.3,21.23,NW,315,1.6,4.0,63,0.00,,,0.00,WUHU216HW,2013-12-06 21:22:00,
2013-12-06 14:27:00,10.1,-0.1,21.24,WNW,293,1.1,4.0,63,0.00,,,0.00,WUHU216HW,2013-12-06 21:27:00,
2013-12-06 14:32:00,10.3,-0.3,21.24,NW,315,0.2,2.9,62,0.00,,,0.00,WUHU216HW,2013-12-06 21:32:00,
2013-12-06 14:37:00,10.1,-0.1,21.24,NNE,23,2.0,4.0,63,0.00,,,0.00,WUHU216HW,2013-12-06 21:37:00,
2013-12-06 14:42:00,9.7,-0.1,21.24,West,270,3.1,4.0,64,0.00,,,0.00,WUHU216HW,2013-12-06 21:42:00,
2013-12-06 14:47:00,9.7,-0.1,21.24,West,270,1.8,3.4,64,0.00,,,0.00,WUHU216HW,2013-12-06 21:47:00,
2013-12-06 14:52:00,9.9,0.1,21.24,NE,45,3.4,3.4,64,0.00,,,0.00,WUHU216HW,2013-12-06 21:52:00,
2013-12-06 14:57:00,9.9,-0.3,21.25,East,90,1.6,3.4,63,0.00,,,0.00,WUHU216HW,2013-12-06 21:57:00,
2013-12-06 15:02:00,9.9,-0.3,21.25,NE,45,2.5,6.0,63,0.00,,,0.00,WUHU216HW,2013-12-06 22:02:00,
2013-12-06 15:07:00,9.7,-0.1,21.25,NNE,23,2.9,6.0,64,0.00,,,0.00,WUHU216HW,2013-12-06 22:07:00,
2013-12-06 15:12:00,9.4,-0.4,21.25,NNW,338,0.9,4.3,64,0.00,,,0.00,WUHU216HW,2013-12-06 22:12:00,
2013-12-06 15:17:00,9.2,-0.6,21.25,ESE,113,5.1,5.1,64,0.00,,,0.00,WUHU216HW,2013-12-06 22:17:00,
2013-12-06 15:22:00,9.2,-0.6,21.25,North,0,2.0,5.1,64,0.00,,,0.00,WUHU216HW,2013-12-06 22:22:00,
2013-12-06 15:27:00,9.0,-0.4,21.25,WNW,293,3.4,3.4,65,0.00,,,0.00,WUHU216HW,2013-12-06 22:27:00,
2013-12-06 15:32:00,9.0,-0.8,21.25,ENE,68,0.9,4.7,64,0.00,,,0.00,WUHU216HW,2013-12-06 22:32:00,
2013-12-06 15:37:00,9.0,-0.8,21.25,WNW,293,2.7,4.7,64,0.00,,,0.00,WUHU216HW,2013-12-06 22:37:00,
2013-12-06 15:42:00,9.0,-0.8,21.25,North,0,2.9,3.8,64,0.00,,,0.00,WUHU216HW,2013-12-06 22:42:00,
2013-12-06 15:47:00,8.6,-1.2,21.26,NNW,338,3.8,3.8,64,0.00,,,0.00,WUHU216HW,2013-12-06 22:47:00,
2013-12-06 15:52:00,8.8,-1.0,21.25,ESE,113,0.4,5.4,64,0.00,,,0.00,WUHU216HW,2013-12-06 22:52:00,
2013-12-06 15:57:00,8.5,-1.3,21.26,East,90,1.1,5.4,64,0.00,,,0.00,WUHU216HW,2013-12-06 22:57:00,
2013-12-06 16:02:00,8.5,-1.3,21.26,West,270,1.6,4.3,64,0.00,,,0.00,WUHU216HW,2013-12-06 23:02:00,
2013-12-06 16:07:00,8.5,-1.3,21.26,NE,45,1.1,4.3,64,0.00,,,0.00,WUHU216HW,2013-12-06 23:07:00,
2013-12-06 16:12:00,8.8,-1.0,21.26,East,90,0.4,2.7,64,0.00,,,0.00,WUHU216HW,2013-12-06 23:12:00,
2013-12-06 16:17:00,8.6,-1.5,21.26,WNW,293,0.4,5.1,63,0.00,,,0.00,WUHU216HW,2013-12-06 23:17:00,
2013-12-06 16:22:00,8.5,-1.3,21.26,WNW,293,0.0,5.1,64,0.00,,,0.00,WUHU216HW,2013-12-06 23:22:00,
2013-12-06 16:27:00,8.8,-1.3,21.26,West,270,0.0,2.5,63,0.00,,,0.00,WUHU216HW,2013-12-06 23:27:00,
2013-12-06 16:32:00,9.0,-0.8,21.26,WNW,293,0.2,0.4,64,0.00,,,0.00,WUHU216HW,2013-12-06 23:32:00,
2013-12-06 16:37:00,9.2,-1.0,21.26,WNW,293,0.2,0.4,63,0.00,,,0.00,WUHU216HW,2013-12-06 23:37:00,
2013-12-06 16:42:00,9.4,-0.8,21.26,West,270,0.0,0.4,63,0.00,,,0.00,WUHU216HW,2013-12-06 23:42:00,
2013-12-06 16:47:00,9.4,-0.8,21.26,West,270,0.4,0.4,63,0.00,,,0.00,WUHU216HW,2013-12-06 23:47:00,
2013-12-06 16:52:00,9.2,-1.3,21.26,West,270,0.4,1.3,62,0.00,,,0.00,WUHU216HW,2013-12-06 23:52:00,
2013-12-06 16:57:00,9.2,-1.3,21.26,East,90,0.4,1.3,62,0.00,,,0.00,WUHU216HW,2013-12-06 23:57:00,
2013-12-06 17:02:00,9.0,-1.4,21.26,West,270,0.0,1.1,62,0.00,,,0.00,WUHU216HW,2013-12-07 00:02:00,
2013-12-06 17:07:00,9.0,-1.4,21.27,WSW,248,0.2,2.2,62,0.00,,,0.00,WUHU216HW,2013-12-07 00:07:00,
2013-12-06 17:12:00,8.8,-2.7,21.27,WNW,293,3.4,4.9,59,0.00,,,0.00,WUHU216HW,2013-12-07 00:12:00,
2013-12-06 17:17:00,8.5,-2.7,21.27,West,270,1.8,4.9,60,0.00,,,0.00,WUHU216HW,2013-12-07 00:17:00,
2013-12-06 17:22:00,8.5,-2.7,21.27,WNW,293,1.8,3.4,60,0.00,,,0.00,WUHU216HW,2013-12-07 00:22:00,
2013-12-06 17:27:00,8.3,-2.9,21.27,WNW,293,0.4,2.5,60,0.00,,,0.00,WUHU216HW,2013-12-07 00:27:00,
2013-12-06 17:32:00,8.1,-3.0,21.27,WNW,293,0.2,2.2,60,0.00,,,0.00,WUHU216HW,2013-12-07 00:32:00,
2013-12-06 17:37:00,8.3,-2.5,21.27,WNW,293,1.1,2.2,61,0.00,,,0.00,WUHU216HW,2013-12-07 00:37:00,
2013-12-06 17:42:00,8.1,-3.0,21.27,WNW,293,4.0,4.3,60,0.00,,,0.00,WUHU216HW,2013-12-07 00:42:00,
2013-12-06 17:47:00,7.7,-3.3,21.27,WNW,293,1.1,4.3,60,0.00,,,0.00,WUHU216HW,2013-12-07 00:47:00,
2013-12-06 17:52:00,7.7,-3.3,21.27,East,90,0.7,3.6,60,0.00,,,0.00,WUHU216HW,2013-12-07 00:52:00,
2013-12-06 17:57:00,7.9,-3.1,21.27,West,270,3.6,4.7,60,0.00,,,0.00,WUHU216HW,2013-12-07 00:57:00,
2013-12-06 18:02:00,7.9,-3.1,21.28,WNW,293,1.8,4.7,60,0.00,,,0.00,WUHU216HW,2013-12-07 01:02:00,
2013-12-06 18:07:00,7.7,-3.7,21.28,West,270,4.3,5.4,59,0.00,,,0.00,WUHU216HW,2013-12-07 01:07:00,
2013-12-06 18:12:00,7.6,-3.5,21.28,NW,315,4.3,5.4,60,0.00,,,0.00,WUHU216HW,2013-12-07 01:12:00,
2013-12-06 18:17:00,7.6,-3.5,21.28,West,270,3.8,4.3,60,0.00,,,0.00,WUHU216HW,2013-12-07 01:17:00,
2013-12-06 18:22:00,7.6,-3.5,21.28,West,270,0.4,3.8,60,0.00,,,0.00,WUHU216HW,2013-12-07 01:22:00,
2013-12-06 18:27:00,7.6,-3.5,21.28,ESE,113,2.5,3.4,60,0.00,,,0.00,WUHU216HW,2013-12-07 01:27:00,
2013-12-06 18:32:00,7.7,-3.3,21.28,WNW,293,0.9,2.5,60,0.00,,,0.00,WUHU216HW,2013-12-07 01:32:00,
2013-12-06 18:37:00,7.9,-3.5,21.28,WNW,293,3.4,3.4,59,0.00,,,0.00,WUHU216HW,2013-12-07 01:37:00,
2013-12-06 18:42:00,7.6,-3.5,21.29,WNW,293,0.4,3.4,60,0.00,,,0.00,WUHU216HW,2013-12-07 01:42:00,
2013-12-06 18:47:00,7.6,-3.9,21.29,West,270,5.4,5.4,59,0.00,,,0.00,WUHU216HW,2013-12-07 01:47:00,
2013-12-06 18:52:00,7.2,-4.2,21.29,ESE,113,1.8,6.5,59,0.00,,,0.00,WUHU216HW,2013-12-07 01:52:00,
2013-12-06 18:57:00,7.2,-3.8,21.29,WSW,248,2.5,6.5,60,0.00,,,0.00,WUHU216HW,2013-12-07 01:57:00,
2013-12-06 19:02:00,7.0,-3.9,21.29,WNW,293,2.5,5.8,60,0.00,,,0.00,WUHU216HW,2013-12-07 02:02:00,
2013-12-06 19:07:00,7.0,-3.9,21.29,WNW,293,6.9,8.7,60,0.00,,,0.00,WUHU216HW,2013-12-07 02:07:00,
2013-12-06 19:12:00,7.2,-4.6,21.29,WNW,293,3.1,8.7,58,0.00,,,0.00,WUHU216HW,2013-12-07 02:12:00,
2013-12-06 19:17:00,7.2,-4.2,21.30,NW,315,0.9,5.4,59,0.00,,,0.00,WUHU216HW,2013-12-07 02:17:00,
2013-12-06 19:22:00,7.2,-4.6,21.30,WNW,293,4.0,4.7,58,0.00,,,0.00,WUHU216HW,2013-12-07 02:22:00,
2013-12-06 19:27:00,7.0,-4.3,21.30,SSE,158,0.2,5.6,59,0.00,,,0.00,WUHU216HW,2013-12-07 02:27:00,
2013-12-06 19:32:00,7.0,-4.3,21.30,NW,315,2.5,5.6,59,0.00,,,0.00,WUHU216HW,2013-12-07 02:32:00,
2013-12-06 19:37:00,7.0,-4.8,21.30,WNW,293,1.8,4.9,58,0.00,,,0.00,WUHU216HW,2013-12-07 02:37:00,
2013-12-06 19:42:00,7.2,-3.8,21.30,WNW,293,0.2,4.9,60,0.00,,,0.00,WUHU216HW,2013-12-07 02:42:00,
2013-12-06 19:47:00,7.2,-4.2,21.30,North,0,1.8,2.0,59,0.00,,,0.00,WUHU216HW,2013-12-07 02:47:00,
2013-12-06 19:52:00,7.0,-4.3,21.30,NW,315,0.0,4.3,59,0.00,,,0.00,WUHU216HW,2013-12-07 02:52:00,
2013-12-06 19:57:00,6.8,-4.5,21.30,NW,315,4.9,4.9,59,0.00,,,0.00,WUHU216HW,2013-12-07 02:57:00,
2013-12-06 20:02:00,6.7,-4.7,21.30,West,270,0.9,4.9,59,0.00,,,0.00,WUHU216HW,2013-12-07 03:02:00,
2013-12-06 20:07:00,6.3,-5.0,21.30,WNW,293,6.0,6.0,59,0.00,,,0.00,WUHU216HW,2013-12-07 03:07:00,
2013-12-06 20:12:00,5.9,-5.0,21.30,West,270,2.5,6.0,60,0.00,,,0.00,WUHU216HW,2013-12-07 03:12:00,
2013-12-06 20:17:00,5.9,-5.0,21.30,West,270,4.7,7.2,60,0.00,,,0.00,WUHU216HW,2013-12-07 03:17:00,
2013-12-06 20:22:00,5.8,-5.2,21.30,WSW,248,5.6,7.2,60,0.00,,,0.00,WUHU216HW,2013-12-07 03:22:00,
2013-12-06 20:27:00,5.4,-5.6,21.30,NW,315,0.7,7.8,60,0.00,,,0.00,WUHU216HW,2013-12-07 03:27:00,
2013-12-06 20:32:00,5.6,-5.4,21.30,West,270,3.4,7.8,60,0.00,,,0.00,WUHU216HW,2013-12-07 03:32:00,
2013-12-06 20:37:00,5.6,-5.4,21.30,West,270,0.7,4.0,60,0.00,,,0.00,WUHU216HW,2013-12-07 03:37:00,
2013-12-06 20:42:00,5.4,-5.6,21.31,WNW,293,5.6,5.6,60,0.00,,,0.00,WUHU216HW,2013-12-07 03:42:00,
2013-12-06 20:47:00,5.4,-5.6,21.31,WNW,293,2.9,6.3,60,0.00,,,0.00,WUHU216HW,2013-12-07 03:47:00,
2013-12-06 20:52:00,5.2,-5.8,21.31,West,270,3.6,6.3,60,0.00,,,0.00,WUHU216HW,2013-12-07 03:52:00,
2013-12-06 20:57:00,5.0,-5.9,21.31,West,270,1.1,6.9,60,0.00,,,0.00,WUHU216HW,2013-12-07 03:57:00,
2013-12-06 21:02:00,5.2,-5.8,21.31,WNW,293,3.4,6.9,60,0.00,,,0.00,WUHU216HW,2013-12-07 04:02:00,
2013-12-06 21:07:00,5.4,-5.6,21.31,WNW,293,2.5,6.7,60,0.00,,,0.00,WUHU216HW,2013-12-07 04:07:00,
2013-12-06 21:12:00,5.4,-5.6,21.31,WNW,293,2.9,6.7,60,0.00,,,0.00,WUHU216HW,2013-12-07 04:12:00,
2013-12-06 21:17:00,5.4,-5.6,21.31,West,270,1.8,5.4,60,0.00,,,0.00,WUHU216HW,2013-12-07 04:17:00,
2013-12-06 21:22:00,5.8,-5.2,21.32,WSW,248,0.0,5.4,60,0.00,,,0.00,WUHU216HW,2013-12-07 04:22:00,
2013-12-06 21:27:00,6.1,-4.9,21.32,SE,135,0.0,3.4,60,0.00,,,0.00,WUHU216HW,2013-12-07 04:27:00,
2013-12-06 21:32:00,6.3,-4.7,21.32,West,270,0.4,3.4,60,0.00,,,0.00,WUHU216HW,2013-12-07 04:32:00,
2013-12-06 21:37:00,6.5,-4.5,21.32,WNW,293,0.0,1.8,60,0.00,,,0.00,WUHU216HW,2013-12-07 04:37:00,
2013-12-06 21:42:00,6.7,-4.3,21.32,West,270,0.0,1.8,60,0.00,,,0.00,WUHU216HW,2013-12-07 04:42:00,
2013-12-06 21:47:00,6.7,-4.3,21.32,West,270,0.4,2.2,60,0.00,,,0.00,WUHU216HW,2013-12-07 04:47:00,
2013-12-06 21:52:00,6.5,-4.5,21.32,WNW,293,3.8,3.8,60,0.00,,,0.00,WUHU216HW,2013-12-07 04:52:00,
2013-12-06 21:57:00,6.5,-4.5,21.33,West,270,0.4,3.8,60,0.00,,,0.00,WUHU216HW,2013-12-07 04:57:00,
2013-12-06 22:01:00,6.7,-4.3,21.32,WNW,293,1.8,3.8,60,0.00,,,0.00,WUHU216HW,2013-12-07 05:01:00,
2013-12-06 22:02:00,6.8,-4.1,21.32,WNW,293,0.9,3.4,60,0.00,,,0.00,WUHU216HW,2013-12-07 05:02:00,
2013-12-06 22:07:00,6.8,-4.1,21.32,West,270,0.4,3.8,60,0.00,,,0.00,WUHU216HW,2013-12-07 05:07:00,
2013-12-06 22:12:00,6.8,-4.1,21.32,WNW,293,0.7,3.8,60,0.00,,,0.00,WUHU216HW,2013-12-07 05:12:00,
2013-12-06 22:17:00,7.0,-3.9,21.32,NNW,338,0.0,2.0,60,0.00,,,0.00,WUHU216HW,2013-12-07 05:17:00,
2013-12-06 22:22:00,7.2,-3.8,21.32,WNW,293,1.6,1.6,60,0.00,,,0.00,WUHU216HW,2013-12-07 05:22:00,
2013-12-06 22:27:00,7.4,-3.3,21.32,WNW,293,2.5,2.5,61,0.00,,,0.00,WUHU216HW,2013-12-07 05:27:00,
2013-12-06 22:32:00,7.6,-3.1,21.32,West,270,0.2,2.5,61,0.00,,,0.00,WUHU216HW,2013-12-07 05:32:00,
2013-12-06 22:37:00,7.2,-3.8,21.32,WNW,293,1.1,2.5,60,0.00,,,0.00,WUHU216HW,2013-12-07 05:37:00,
2013-12-06 22:42:00,7.0,-3.9,21.32,NW,315,0.2,1.8,60,0.00,,,0.00,WUHU216HW,2013-12-07 05:42:00,
2013-12-06 22:47:00,6.8,-4.1,21.32,WNW,293,0.4,1.8,60,0.00,,,0.00,WUHU216HW,2013-12-07 05:47:00,
2013-12-06 22:52:00,6.3,-4.7,21.31,West,270,0.0,1.6,60,0.00,,,0.00,WUHU216HW,2013-12-07 05:52:00,
2013-12-06 22:57:00,6.3,-4.7,21.32,West,270,0.0,1.6,60,0.00,,,0.00,WUHU216HW,2013-12-07 05:57:00,
2013-12-06 23:02:00,6.5,-4.1,21.32,West,270,0.0,0.0,61,0.00,,,0.00,WUHU216HW,2013-12-07 06:02:00,
2013-12-06 23:07:00,6.7,-3.7,21.32,West,270,0.4,0.4,62,0.00,,,0.00,WUHU216HW,2013-12-07 06:07:00,
2013-12-06 23:12:00,6.8,-3.8,21.31,West,270,0.4,1.1,61,0.00,,,0.00,WUHU216HW,2013-12-07 06:12:00,
2013-12-06 23:17:00,6.8,-3.8,21.32,East,90,0.4,1.1,61,0.00,,,0.00,WUHU216HW,2013-12-07 06:17:00,
2013-12-06 23:22:00,7.4,-3.0,21.32,ENE,68,0.0,0.7,62,0.00,,,0.00,WUHU216HW,2013-12-07 06:22:00,
2013-12-06 23:27:00,7.6,-2.8,21.32,East,90,0.0,0.7,62,0.00,,,0.00,WUHU216HW,2013-12-07 06:27:00,
2013-12-06 23:32:00,7.4,-3.0,21.32,NNW,338,0.0,0.2,62,0.00,,,0.00,WUHU216HW,2013-12-07 06:32:00,
2013-12-06 23:37:00,6.8,-3.5,21.31,NNW,338,0.0,0.2,62,0.00,,,0.00,WUHU216HW,2013-12-07 06:37:00,
2013-12-06 23:42:00,6.5,-3.9,21.31,NW,315,0.0,0.2,62,0.00,,,0.00,WUHU216HW,2013-12-07 06:42:00,
2013-12-06 23:47:00,6.5,-3.9,21.31,NW,315,0.0,0.2,62,0.00,,,0.00,WUHU216HW,2013-12-07 06:47:00,
2013-12-06 23:52:00,6.1,-4.2,21.31,NW,315,0.0,0.0,62,0.00,,,0.00,WUHU216HW,2013-12-07 06:52:00,
2013-12-06 23:57:00,6.3,-3.7,21.31,NW,315,0.0,0.0,63,0.00,,,0.00,WUHU216HW,2013-12-07 06:57:00,